Meteorología y climatología de Navarra
Datos de la estación - Meteo Navarra

Estación de Erremendia (Salazar) GN

Altitud 1047 m.


Datos desde el 04/01/2010 hasta el 05/01/2010 en horario solar
Los datos son PROVISIONALES

Anterior Página 1 de 1 Siguiente Descargar: Formato para Excel 2000 o superior   Formato csv   Formato para OpenOffice Calc
Fecha Temperatura Humedad relativa Radiación global Insolación Precipitación Vel. viento 10 m Vel. viento 10 m Dir. viento 10 m
ºC % W/m² s l/m² m/s km/h º
04/01/2010 0:00 2.8 99 0.0 0 0.0 0.3 1.0 210
04/01/2010 0:10 2.8 100 0.0 0 0.0 0.8 2.8 217
04/01/2010 0:20 2.8 100 0.0 0 0.0 0.4 1.4 213
04/01/2010 0:30 2.7 100 0.0 0 0.0 0.2 0.8 352
04/01/2010 0:40 2.7 100 0.0 0 0.0 0.4 1.3 47
04/01/2010 0:50 2.7 100 0.0 0 0.0 0.4 1.4 76
04/01/2010 1:00 2.7 100 0.0 0 0.0 0.6 2.1 56
04/01/2010 1:10 2.7 100 0.0 0 0.0 0.6 2.0 64
04/01/2010 1:20 2.7 100 0.0 0 0.0 0.2 0.9 25
04/01/2010 1:30 2.6 100 0.0 0 0.0 0.2 0.6 258
04/01/2010 1:40 2.6 100 0.0 0 0.0 0.6 2.1 100
04/01/2010 1:50 2.6 100 0.0 0 0.0 0.7 2.3 38
04/01/2010 2:00 2.6 100 0.0 0 0.0 0.3 0.9 45
04/01/2010 2:10 2.6 100 0.0 0 0.0 0.1 0.4 164
04/01/2010 2:20 2.5 100 0.0 0 0.0 0.1 0.3 48
04/01/2010 2:30 2.5 100 0.0 0 0.0 0.1 0.5 41
04/01/2010 2:40 2.5 100 0.0 0 0.0 0.4 1.4 84
04/01/2010 2:50 2.5 100 0.0 0 0.0 0.1 0.5 358
04/01/2010 3:00 2.6 100 0.0 0 0.0 0.0 0.1 145
04/01/2010 3:10 2.5 100 0.0 0 0.0 0.0 0.0 212
04/01/2010 3:20 2.4 100 0.0 0 0.0 0.4 1.5 223
04/01/2010 3:30 2.1 100 0.0 0 0.0 0.5 1.7 203
04/01/2010 3:40 1.6 100 0.0 0 0.0 0.7 2.4 230
04/01/2010 3:50 1.2 100 0.0 0 0.0 0.6 2.1 222
04/01/2010 4:00 0.9 100 0.0 0 0.0 0.0 0.0 277
04/01/2010 4:10 0.5 100 0.0 0 0.0 0.0 0.0 0
04/01/2010 4:20 0.3 100 0.0 0 0.0 0.8 2.8 64
04/01/2010 4:30 0.1 100 0.0 0 0.0 0.1 0.5 59
04/01/2010 4:40 -0.2 100 0.0 0 0.0 0.6 2.2 45
04/01/2010 4:50 0.1 100 0.0 0 0.0 0.5 1.9 74
04/01/2010 5:00 -0.2 100 0.0 0 0.0 0.5 1.7 139
04/01/2010 5:10 -0.7 100 0.0 0 0.0 0.4 1.3 121
04/01/2010 5:20 -0.5 100 0.0 0 0.0 0.1 0.4 339
04/01/2010 5:30 -0.6 100 0.0 0 0.0 0.4 1.3 73
04/01/2010 5:40 -0.6 100 0.0 0 0.0 0.4 1.3 2
04/01/2010 5:50 -0.7 100 0.0 0 0.0 0.7 2.5 92
04/01/2010 6:00 -0.7 100 0.0 0 0.0 0.2 0.8 69
04/01/2010 6:10 -0.8 100 0.0 0 0.0 0.1 0.5 53
04/01/2010 6:20 -0.6 100 0.0 0 0.0 0.7 2.4 86
04/01/2010 6:30 -0.5 100 0.0 0 0.0 0.3 0.9 71
04/01/2010 6:40 -0.6 100 0.0 0 0.0 0.2 0.8 159
04/01/2010 6:50 -0.6 100 0.0 0 0.0 0.2 0.6 136
04/01/2010 7:00 -0.8 100 0.0 0 0.0 0.1 0.3 61
04/01/2010 7:10 -0.8 100 0.0 0 0.0 0.5 1.7 69
04/01/2010 7:20 -0.6 100 0.0 0 0.0 0.8 3.0 72
04/01/2010 7:30 -0.5 100 0.0 0 0.0 0.7 2.4 75
04/01/2010 7:40 -0.6 100 0.8 0 0.0 0.3 1.2 81
04/01/2010 7:50 -0.8 100 15.8 0 0.0 0.2 0.7 69
04/01/2010 8:00 -0.9 100 25.5 0 0.0 0.5 1.6 72
04/01/2010 8:10 -0.8 100 34.5 0 0.0 0.8 3.0 59
04/01/2010 8:20 -0.7 100 43.6 0 0.0 0.4 1.4 97
04/01/2010 8:30 -0.6 100 53.0 0 0.0 0.7 2.4 60
04/01/2010 8:40 -0.4 100 65.2 0 0.0 0.2 0.8 328
04/01/2010 8:50 -0.2 100 82.6 0 0.0 0.8 3.0 61
04/01/2010 9:00 0.1 100 135.2 464 0.0 0.3 0.9 27
04/01/2010 9:10 0.6 100 175.5 600 0.0 0.3 1.1 83
04/01/2010 9:20 0.9 100 132.9 244 0.0 0.8 2.8 63
04/01/2010 9:30 1.3 100 128.9 56 0.0 0.7 2.6 61
04/01/2010 9:40 1.6 100 186.2 600 0.0 1.0 3.5 75
04/01/2010 9:50 2.2 100 239.4 600 0.0 1.5 5.2 74
04/01/2010 10:00 3.1 100 257.0 600 0.0 0.2 0.7 81
04/01/2010 10:10 3.7 100 209.1 452 0.0 0.8 2.8 66
04/01/2010 10:20 3.9 100 223.6 388 0.0 0.6 2.1 110
04/01/2010 10:30 4.9 100 199.8 304 0.0 0.6 2.0 68
04/01/2010 10:40 3.5 100 249.6 308 0.0 2.5 9.1 71
04/01/2010 10:50 3.6 100 359.4 600 0.0 2.6 9.2 68
04/01/2010 11:00 4.1 100 430.1 600 0.0 2.6 9.4 73
04/01/2010 11:10 4.2 99 464.3 600 0.0 3.2 11.5 79
04/01/2010 11:20 4.0 99 394.8 600 0.0 3.4 12.3 82
04/01/2010 11:30 3.9 99 350.3 600 0.0 3.2 11.4 90
04/01/2010 11:40 3.8 98 404.3 600 0.0 2.8 10.2 93
04/01/2010 11:50 3.9 98 342.5 592 0.0 2.6 9.3 83
04/01/2010 12:00 3.5 98 227.4 240 0.0 2.9 10.3 65
04/01/2010 12:10 3.2 99 222.8 288 0.0 2.4 8.6 43
04/01/2010 12:20 3.1 99 205.3 68 0.0 2.1 7.7 53
04/01/2010 12:30 2.9 99 221.6 260 0.0 2.2 7.8 44
04/01/2010 12:40 3.3 99 318.2 600 0.0 1.2 4.3 34
04/01/2010 12:50 3.9 99 409.3 600 0.0 0.6 2.2 279
04/01/2010 13:00 4.6 97 371.0 600 0.0 0.6 2.2 288
04/01/2010 13:10 5.3 92 345.9 600 0.0 0.8 2.7 14
04/01/2010 13:20 5.9 86 403.4 600 0.0 2.4 8.5 138
04/01/2010 13:30 6.0 81 302.6 600 0.0 3.0 10.9 138
04/01/2010 13:40 6.0 81 228.0 520 0.0 3.6 12.9 145
04/01/2010 13:50 5.7 81 174.6 0 0.0 3.3 12.0 147
04/01/2010 14:00 5.5 83 223.8 520 0.0 3.1 11.3 135
04/01/2010 14:10 5.5 82 261.4 600 0.0 3.5 12.6 141
04/01/2010 14:20 5.5 82 282.1 600 0.0 3.2 11.5 143
04/01/2010 14:30 5.8 81 313.1 600 0.0 2.9 10.4 134
04/01/2010 14:40 6.0 79 216.6 600 0.0 2.9 10.5 149
04/01/2010 14:50 5.8 80 178.5 600 0.0 2.2 7.8 142
04/01/2010 15:00 5.6 81 144.8 600 0.0 1.5 5.5 189
04/01/2010 15:10 5.4 82 161.3 600 0.0 1.5 5.5 175
04/01/2010 15:20 5.6 83 153.9 600 0.0 1.6 5.9 77
04/01/2010 15:30 5.0 89 130.7 600 0.0 2.3 8.4 84
04/01/2010 15:40 4.9 88 90.1 600 0.0 0.8 2.7 199
04/01/2010 15:50 4.9 88 71.6 416 0.0 0.5 1.9 72
04/01/2010 16:00 4.5 90 61.9 0 0.0 1.2 4.2 80
04/01/2010 16:10 3.9 92 50.0 0 0.0 1.8 6.5 92
04/01/2010 16:20 3.7 94 34.4 0 0.0 2.5 9.0 89
04/01/2010 16:30 3.4 95 24.2 0 0.0 3.1 11.2 93
04/01/2010 16:40 3.5 95 17.5 0 0.0 2.4 8.6 111
04/01/2010 16:50 3.5 95 3.2 0 0.0 2.9 10.3 103
04/01/2010 17:00 3.4 95 0.0 0 0.0 2.2 7.7 102
04/01/2010 17:10 3.2 96 0.0 0 0.0 2.3 8.4 89
04/01/2010 17:20 3.1 96 0.0 0 0.0 2.8 10.2 92
04/01/2010 17:30 3.1 96 0.0 0 0.0 2.5 9.1 106
04/01/2010 17:40 3.4 95 0.0 0 0.0 2.8 10.1 119
04/01/2010 17:50 4.0 92 0.0 0 0.0 3.8 13.8 114
04/01/2010 18:00 4.0 92 0.0 0 0.0 3.7 13.3 119
04/01/2010 18:10 4.0 93 0.0 0 0.0 3.6 12.9 125
04/01/2010 18:20 4.3 91 0.0 0 0.0 3.6 13.0 141
04/01/2010 18:30 4.6 90 0.0 0 0.0 2.6 9.5 140
04/01/2010 18:40 4.6 90 0.0 0 0.0 2.4 8.7 148
04/01/2010 18:50 4.7 90 0.0 0 0.0 1.9 6.7 135
04/01/2010 19:00 4.6 90 0.0 0 0.0 2.4 8.7 119
04/01/2010 19:10 4.6 89 0.0 0 0.0 2.9 10.4 130
04/01/2010 19:20 4.7 88 0.0 0 0.0 3.0 10.9 136
04/01/2010 19:30 4.7 87 0.0 0 0.0 2.7 9.7 136
04/01/2010 19:40 4.7 86 0.0 0 0.0 2.7 9.6 137
04/01/2010 19:50 4.7 86 0.0 0 0.0 2.3 8.2 127
04/01/2010 20:00 4.6 86 0.0 0 0.0 1.0 3.5 134
04/01/2010 20:10 4.1 89 0.0 0 0.0 0.7 2.4 300
04/01/2010 20:20 3.1 93 0.0 0 0.0 1.1 3.8 278
04/01/2010 20:30 2.6 95 0.0 0 0.0 0.6 2.1 273
04/01/2010 20:40 2.5 96 0.0 0 0.0 0.6 2.2 267
04/01/2010 20:50 2.6 97 0.0 0 0.0 0.2 0.6 322
04/01/2010 21:00 2.7 97 0.0 0 0.0 0.4 1.5 161
04/01/2010 21:10 2.7 98 0.0 0 0.0 0.2 0.6 195
04/01/2010 21:20 2.7 98 0.0 0 0.0 0.2 0.6 332
04/01/2010 21:30 2.7 98 0.0 0 0.0 0.2 0.7 112
04/01/2010 21:40 2.7 98 0.0 0 0.0 0.6 2.0 108
04/01/2010 21:50 2.8 98 0.0 0 0.0 0.3 1.1 48
04/01/2010 22:00 2.8 98 0.0 0 0.0 0.3 1.2 38
04/01/2010 22:10 2.7 98 0.0 0 0.0 0.0 0.0 0
04/01/2010 22:20 2.8 98 0.0 0 0.0 0.2 0.9 58
04/01/2010 22:30 2.8 99 0.0 0 0.0 0.3 0.9 234
04/01/2010 22:40 2.7 99 0.0 0 0.0 0.0 0.1 237
04/01/2010 22:50 2.7 99 0.0 0 0.0 0.0 0.0 0
04/01/2010 23:00 2.7 99 0.0 0 0.0 0.3 1.0 309
04/01/2010 23:10 2.7 99 0.0 0 0.0 0.1 0.5 181
04/01/2010 23:20 2.7 99 0.0 0 0.0 0.0 0.1 175
04/01/2010 23:30 2.7 99 0.0 0 0.0 0.0 0.1 285
04/01/2010 23:40 2.7 99 0.0 0 0.0 0.4 1.6 287
04/01/2010 23:50 2.7 99 0.0 0 0.0 0.7 2.4 267
Anterior Página 1 de 1 Siguiente

NOTA: Tipo de datos según el color:
   - Valores diarios o 10 minutos correctos
   - Valores diarios calculados a partir de un número de datos 10 minutos menor que 144 y mayor que 120, o de un número de datos semihorarios menor que 48 y mayor que 40 (caso de las estaciones de Riegos de Navarra y del MARM)
   - Valores diez minutos estimados


Contacto        Enlaces        Aviso legal